createdAt,value
2018-01-31T01:52:31.380Z,1011.61
2018-01-31T01:53:31.315Z,1011.61
2018-01-31T01:54:31.248Z,1011.55
2018-01-31T01:55:31.183Z,1011.54
2018-01-31T01:56:31.118Z,1011.45
2018-01-31T01:57:31.052Z,1011.46
2018-01-31T01:58:30.987Z,1011.42
2018-01-31T01:59:30.925Z,1011.42
2018-01-31T02:00:30.859Z,1011.41
2018-01-31T02:01:30.790Z,1011.40
2018-01-31T02:02:30.726Z,1011.38
2018-01-31T02:03:30.661Z,1011.31
2018-01-31T02:04:30.597Z,1011.30
2018-01-31T02:05:30.530Z,1011.31
2018-01-31T02:06:30.464Z,1011.26
2018-01-31T02:07:30.399Z,1011.15
2018-01-31T02:08:30.334Z,1011.17
2018-01-31T02:09:30.268Z,1011.15
2018-01-31T02:10:30.203Z,1011.13
2018-01-31T02:11:30.139Z,1011.14
2018-01-31T02:12:30.074Z,1011.10
2018-01-31T02:13:30.008Z,1011.11
2018-01-31T02:14:29.942Z,1011.12
2018-01-31T02:15:29.876Z,1011.10
2018-01-31T02:16:29.812Z,1011.05
2018-01-31T02:17:29.746Z,1011.04
2018-01-31T02:18:29.681Z,1011.00
2018-01-31T02:19:29.616Z,1010.95
2018-01-31T02:20:29.552Z,1010.91
2018-01-31T02:21:29.485Z,1010.91
2018-01-31T02:22:29.421Z,1010.90
2018-01-31T02:23:29.355Z,1010.91
2018-01-31T02:24:29.291Z,1010.89
2018-01-31T02:25:29.225Z,1010.87
2018-01-31T02:26:29.160Z,1010.88
2018-01-31T02:27:29.094Z,1010.89
2018-01-31T02:28:29.028Z,1010.82
2018-01-31T02:29:28.964Z,1010.80
2018-01-31T02:30:28.898Z,1010.75
2018-01-31T02:31:28.832Z,1010.74
2018-01-31T02:32:28.768Z,1010.73
2018-01-31T02:33:28.707Z,1010.67
2018-01-31T02:34:28.636Z,1010.62
2018-01-31T02:35:28.571Z,1010.60
2018-01-31T02:36:28.506Z,1010.54
2018-01-31T02:37:28.440Z,1010.51
2018-01-31T02:38:28.376Z,1010.41
2018-01-31T02:39:28.311Z,1010.36
2018-01-31T02:40:28.245Z,1010.29
2018-01-31T02:41:28.180Z,1010.28
2018-01-31T02:42:28.113Z,1010.24
2018-01-31T02:43:28.050Z,1010.22
2018-01-31T02:44:27.983Z,1010.20
2018-01-31T02:45:27.918Z,1010.25
2018-01-31T02:46:27.852Z,1010.24
2018-01-31T02:47:27.790Z,1010.24
2018-01-31T02:48:27.723Z,1010.26
2018-01-31T02:49:27.657Z,1010.25
2018-01-31T02:50:27.592Z,1010.24
2018-01-31T02:51:27.604Z,1010.22
2018-01-31T02:52:27.461Z,1010.30
2018-01-31T02:53:27.395Z,1010.27
2018-01-31T02:54:27.330Z,1010.21
2018-01-31T02:55:27.266Z,1010.18
2018-01-31T02:56:27.200Z,1010.11
2018-01-31T02:57:27.135Z,1010.09
2018-01-31T02:58:27.070Z,1010.05
2018-01-31T02:59:27.006Z,1010.03
2018-01-31T03:00:26.939Z,1010.06
2018-01-31T03:01:26.874Z,1010.01
2018-01-31T03:02:26.808Z,1009.96
2018-01-31T03:03:26.744Z,1009.98
2018-01-31T03:04:26.678Z,1009.99
2018-01-31T03:05:26.612Z,1009.96
2018-01-31T03:06:26.547Z,1009.96
2018-01-31T03:07:26.482Z,1009.96
2018-01-31T03:08:26.418Z,1009.92
2018-01-31T03:09:26.361Z,1009.96
2018-01-31T03:10:26.286Z,1009.96
2018-01-31T03:11:26.222Z,1009.97
2018-01-31T03:12:26.157Z,1009.93
2018-01-31T03:13:26.090Z,1009.93
2018-01-31T03:14:26.073Z,1009.91
2018-01-31T03:15:25.961Z,1009.89
2018-01-31T03:16:25.895Z,1009.86
2018-01-31T03:17:25.831Z,1009.87
2018-01-31T03:18:25.765Z,1009.84
2018-01-31T03:19:25.699Z,1009.81
2018-01-31T03:20:25.635Z,1009.80
2018-01-31T03:21:25.569Z,1009.83
2018-01-31T03:22:25.504Z,1009.78
2018-01-31T03:23:25.440Z,1009.79
2018-01-31T03:24:25.375Z,1009.76
2018-01-31T03:25:25.309Z,1009.83
2018-01-31T03:26:25.244Z,1009.79
2018-01-31T03:27:25.179Z,1009.81
2018-01-31T03:28:25.114Z,1009.79
2018-01-31T03:29:25.048Z,1009.81
2018-01-31T03:30:24.984Z,1009.79
2018-01-31T03:31:24.923Z,1009.79
2018-01-31T03:32:24.853Z,1009.77
2018-01-31T03:33:24.788Z,1009.74
2018-01-31T03:34:24.723Z,1009.77
2018-01-31T03:35:24.658Z,1009.72
2018-01-31T03:36:24.594Z,1009.66
2018-01-31T03:37:24.527Z,1009.67
2018-01-31T03:38:24.461Z,1009.64
2018-01-31T03:39:24.397Z,1009.62
2018-01-31T03:40:24.332Z,1009.61
2018-01-31T03:41:24.266Z,1009.60
2018-01-31T03:42:24.202Z,1009.61
2018-01-31T03:43:24.137Z,1009.59
2018-01-31T03:44:24.072Z,1009.66
2018-01-31T03:45:24.006Z,1009.62
2018-01-31T03:46:23.942Z,1009.59
2018-01-31T03:47:23.876Z,1009.54
2018-01-31T03:48:23.812Z,1009.55
2018-01-31T03:49:23.747Z,1009.48
2018-01-31T03:50:23.681Z,1009.47
2018-01-31T03:51:23.616Z,1009.41
2018-01-31T03:52:23.554Z,1009.46
2018-01-31T03:53:23.488Z,1009.44
2018-01-31T03:54:23.420Z,1009.39
2018-01-31T03:55:23.356Z,1009.47
2018-01-31T03:56:23.292Z,1009.47
2018-01-31T03:57:23.226Z,1009.46
2018-01-31T03:58:23.161Z,1009.45
2018-01-31T03:59:23.096Z,1009.49
2018-01-31T04:00:23.032Z,1009.42
2018-01-31T04:01:22.966Z,1009.48
2018-01-31T04:02:22.901Z,1009.49
2018-01-31T04:03:22.837Z,1009.46
2018-01-31T04:04:22.771Z,1009.43
2018-01-31T04:05:22.728Z,1009.42
2018-01-31T04:06:22.641Z,1009.43
2018-01-31T04:07:22.575Z,1009.41
2018-01-31T04:08:22.511Z,1009.41
2018-01-31T04:09:22.444Z,1009.44
2018-01-31T04:10:22.380Z,1009.36
2018-01-31T04:11:22.315Z,1009.39
2018-01-31T04:12:22.251Z,1009.34
2018-01-31T04:13:22.186Z,1009.30
2018-01-31T04:14:22.121Z,1009.32
2018-01-31T04:15:22.055Z,1009.29
2018-01-31T04:16:21.990Z,1009.30
2018-01-31T04:17:21.925Z,1009.21
2018-01-31T04:18:21.861Z,1009.22
2018-01-31T04:19:21.796Z,1009.19
2018-01-31T04:20:21.730Z,1009.14
2018-01-31T04:21:21.665Z,1009.10
2018-01-31T04:22:21.600Z,1009.04
2018-01-31T04:23:21.536Z,1009.02
2018-01-31T04:24:21.472Z,1009.00
2018-01-31T04:25:21.405Z,1008.94
2018-01-31T04:26:21.341Z,1008.90
2018-01-31T04:27:21.276Z,1008.85
2018-01-31T04:28:21.210Z,1008.87
2018-01-31T04:29:21.145Z,1008.80
2018-01-31T04:30:21.081Z,1008.80
2018-01-31T04:31:21.015Z,1008.82
2018-01-31T04:32:20.950Z,1008.77
2018-01-31T04:33:20.885Z,1008.72
2018-01-31T04:34:20.821Z,1008.75
2018-01-31T04:35:20.756Z,1008.73
2018-01-31T04:36:20.690Z,1008.73
2018-01-31T04:37:20.629Z,1008.66
2018-01-31T04:38:20.559Z,1008.71
2018-01-31T04:39:20.495Z,1008.72
2018-01-31T04:40:20.429Z,1008.73
2018-01-31T04:41:20.364Z,1008.64
2018-01-31T04:42:20.299Z,1008.65
2018-01-31T04:43:20.234Z,1008.62
2018-01-31T04:44:20.171Z,1008.63
2018-01-31T04:45:20.105Z,1008.63
2018-01-31T04:46:20.039Z,1008.64
2018-01-31T04:47:19.975Z,1008.51
2018-01-31T04:48:19.912Z,1008.59
2018-01-31T04:49:19.843Z,1008.56
2018-01-31T04:50:19.807Z,1008.61
2018-01-31T04:51:19.715Z,1008.56
2018-01-31T04:52:19.650Z,1008.54
2018-01-31T04:53:19.583Z,1008.56
2018-01-31T04:54:19.521Z,1008.53
2018-01-31T04:55:19.454Z,1008.54
2018-01-31T04:56:19.389Z,1008.55
2018-01-31T04:57:19.323Z,1008.55
2018-01-31T04:58:19.258Z,1008.53
2018-01-31T04:59:19.193Z,1008.41
2018-01-31T05:00:19.129Z,1008.41
2018-01-31T05:01:19.063Z,1008.41
2018-01-31T05:02:18.999Z,1008.43
2018-01-31T05:03:18.933Z,1008.43
2018-01-31T05:04:18.869Z,1008.40
2018-01-31T05:05:18.804Z,1008.44
2018-01-31T05:06:18.738Z,1008.37
2018-01-31T05:07:18.673Z,1008.39
2018-01-31T05:08:18.608Z,1008.37
2018-01-31T05:09:18.562Z,1008.35
2018-01-31T05:10:18.480Z,1008.34
2018-01-31T05:11:18.417Z,1008.33
2018-01-31T05:12:18.349Z,1008.33
2018-01-31T05:13:18.284Z,1008.29
2018-01-31T05:14:18.219Z,1008.31
2018-01-31T05:15:18.153Z,1008.26
2018-01-31T05:16:18.089Z,1008.22
2018-01-31T05:17:18.023Z,1008.18
2018-01-31T05:18:17.960Z,1008.16
2018-01-31T05:19:17.895Z,1008.19
2018-01-31T05:20:17.830Z,1008.18
2018-01-31T05:21:17.764Z,1008.15
2018-01-31T05:22:17.699Z,1008.23
2018-01-31T05:23:17.636Z,1008.14
2018-01-31T05:24:17.570Z,1008.19
2018-01-31T05:25:17.504Z,1008.13
2018-01-31T05:26:17.441Z,1008.12
2018-01-31T05:27:17.378Z,1008.11
2018-01-31T05:28:17.310Z,1008.08
2018-01-31T05:29:17.245Z,1008.07
2018-01-31T05:30:17.181Z,1008.05
2018-01-31T05:31:17.115Z,1008.01
2018-01-31T05:32:17.052Z,1008.05
2018-01-31T05:33:16.984Z,1007.92
2018-01-31T05:34:16.921Z,1007.97
2018-01-31T05:35:16.856Z,1007.99
2018-01-31T05:36:16.791Z,1007.91
2018-01-31T05:37:16.726Z,1007.91
2018-01-31T05:38:16.661Z,1007.86
2018-01-31T05:39:16.597Z,1007.86
2018-01-31T05:40:16.533Z,1007.89
2018-01-31T05:41:16.467Z,1007.84
2018-01-31T05:42:16.402Z,1007.86
2018-01-31T05:43:16.337Z,1007.83
2018-01-31T05:44:16.273Z,1007.79
2018-01-31T05:45:16.207Z,1007.80
2018-01-31T05:46:16.142Z,1007.75
2018-01-31T05:47:16.078Z,1007.80
2018-01-31T05:48:16.013Z,1007.78
2018-01-31T05:49:15.947Z,1007.72
2018-01-31T05:50:15.882Z,1007.70
2018-01-31T05:51:15.818Z,1007.69
2018-01-31T05:52:15.754Z,1007.70
2018-01-31T05:53:15.688Z,1007.68
2018-01-31T05:54:15.624Z,1007.68
2018-01-31T05:55:15.559Z,1007.69
2018-01-31T05:56:15.496Z,1007.69
2018-01-31T05:57:15.460Z,1007.79
2018-01-31T05:58:15.364Z,1007.68
2018-01-31T05:59:15.299Z,1007.69
2018-01-31T06:00:15.235Z,1007.73
2018-01-31T06:01:15.169Z,1007.71
2018-01-31T06:02:15.104Z,1007.69
2018-01-31T06:03:15.040Z,1007.65
2018-01-31T06:04:14.976Z,1007.72
2018-01-31T06:05:14.915Z,1007.66
2018-01-31T06:06:14.845Z,1007.62
2018-01-31T06:07:14.780Z,1007.65
2018-01-31T06:08:14.716Z,1007.68
2018-01-31T06:09:14.650Z,1007.61
2018-01-31T06:10:14.586Z,1007.68
2018-01-31T06:11:14.521Z,1007.64
2018-01-31T06:12:14.457Z,1007.63
2018-01-31T06:13:14.392Z,1007.60
2018-01-31T06:14:14.326Z,1007.52
2018-01-31T06:15:14.263Z,1007.52
2018-01-31T06:16:14.197Z,1007.53
2018-01-31T06:17:14.132Z,1007.54
2018-01-31T06:18:14.066Z,1007.53
2018-01-31T06:19:14.003Z,1007.48
2018-01-31T06:20:13.939Z,1007.49
2018-01-31T06:21:13.872Z,1007.48
2018-01-31T06:22:13.808Z,1007.48
2018-01-31T06:23:13.743Z,1007.52
2018-01-31T06:24:13.681Z,1007.51
2018-01-31T06:25:13.612Z,1007.48
2018-01-31T06:26:13.550Z,1007.48
2018-01-31T06:27:13.484Z,1007.51
2018-01-31T06:28:13.419Z,1007.47
2018-01-31T06:29:13.354Z,1007.48
2018-01-31T06:30:13.289Z,1007.45
2018-01-31T06:31:13.225Z,1007.45
2018-01-31T06:32:13.161Z,1007.45
2018-01-31T06:33:13.095Z,1007.48
2018-01-31T06:34:13.031Z,1007.45
2018-01-31T06:35:12.966Z,1007.51
2018-01-31T06:36:12.901Z,1007.50
2018-01-31T06:37:12.836Z,1007.40
2018-01-31T06:38:12.772Z,1007.34
2018-01-31T06:39:12.707Z,1007.39
2018-01-31T06:40:12.643Z,1007.41
2018-01-31T06:41:12.578Z,1007.40
2018-01-31T06:42:12.513Z,1007.36
2018-01-31T06:43:12.449Z,1007.39
2018-01-31T06:44:12.385Z,1007.36
2018-01-31T06:45:12.322Z,1007.38
2018-01-31T06:46:12.254Z,1007.33
2018-01-31T06:47:12.191Z,1007.29
2018-01-31T06:48:12.126Z,1007.36
2018-01-31T06:49:12.060Z,1007.38
2018-01-31T06:50:11.996Z,1007.27
2018-01-31T06:51:11.931Z,1007.31
2018-01-31T06:52:11.917Z,1007.31
2018-01-31T06:53:11.801Z,1007.28
2018-01-31T06:54:11.737Z,1007.29
2018-01-31T06:55:11.673Z,1007.25
2018-01-31T06:56:11.608Z,1007.25
2018-01-31T06:57:11.542Z,1007.23
2018-01-31T06:58:11.478Z,1007.23
2018-01-31T06:59:11.421Z,1007.23
2018-01-31T07:00:11.354Z,1007.16
2018-01-31T07:01:11.285Z,1007.21
2018-01-31T07:02:11.220Z,1007.16
2018-01-31T07:03:11.156Z,1007.24
2018-01-31T07:04:11.091Z,1007.14
2018-01-31T07:05:11.026Z,1007.14
2018-01-31T07:06:10.961Z,1007.14
2018-01-31T07:07:10.897Z,1007.14
2018-01-31T07:08:10.837Z,1007.19
2018-01-31T07:09:10.766Z,1007.13
2018-01-31T07:10:10.703Z,1007.22
2018-01-31T07:11:10.639Z,1007.21
2018-01-31T07:12:10.576Z,1007.16
2018-01-31T07:13:10.512Z,1007.18
2018-01-31T07:14:10.521Z,1007.19
2018-01-31T07:15:10.381Z,1007.12
2018-01-31T07:16:10.317Z,1007.15
2018-01-31T07:17:10.252Z,1007.11
2018-01-31T07:18:10.186Z,1007.17
2018-01-31T07:19:10.123Z,1007.10
2018-01-31T07:20:10.058Z,1007.10
2018-01-31T07:21:09.992Z,1007.09
2018-01-31T07:22:09.929Z,1007.05
2018-01-31T07:23:09.864Z,1006.99
2018-01-31T07:24:09.800Z,1007.02
2018-01-31T07:25:09.734Z,1007.06
2018-01-31T07:26:09.670Z,1007.06
2018-01-31T07:27:09.606Z,1007.09
2018-01-31T07:28:09.542Z,1007.08
2018-01-31T07:29:09.479Z,1007.09
2018-01-31T07:30:09.413Z,1007.10
2018-01-31T07:31:09.348Z,1007.11
2018-01-31T07:32:09.285Z,1007.09
2018-01-31T07:33:09.219Z,1007.03
2018-01-31T07:34:09.160Z,1007.05
2018-01-31T07:35:09.092Z,1007.06
2018-01-31T07:36:09.026Z,1006.99
2018-01-31T07:37:08.962Z,1007.00
2018-01-31T07:38:08.897Z,1007.02
2018-01-31T07:39:08.837Z,1006.94
2018-01-31T07:40:08.770Z,1006.89
2018-01-31T07:41:08.704Z,1006.88
2018-01-31T07:42:08.640Z,1006.86
2018-01-31T07:43:08.577Z,1006.86
2018-01-31T07:44:08.512Z,1006.85
2018-01-31T07:45:08.447Z,1006.79
2018-01-31T07:46:08.382Z,1006.74
2018-01-31T07:47:08.320Z,1006.74
2018-01-31T07:48:08.254Z,1006.76
2018-01-31T07:49:08.190Z,1006.75
2018-01-31T07:50:08.126Z,1006.71
2018-01-31T07:51:08.076Z,1006.66
2018-01-31T07:52:07.999Z,1006.72
2018-01-31T07:53:07.933Z,1006.67
2018-01-31T07:54:07.870Z,1006.73
2018-01-31T07:55:07.847Z,1006.65
2018-01-31T07:56:07.742Z,1006.69
2018-01-31T07:57:07.678Z,1006.69
2018-01-31T07:58:07.614Z,1006.66
2018-01-31T07:59:07.551Z,1006.62
2018-01-31T08:00:07.486Z,1006.60
2018-01-31T08:01:07.421Z,1006.59
2018-01-31T08:02:07.357Z,1006.61
2018-01-31T08:03:07.295Z,1006.53
2018-01-31T08:04:07.230Z,1006.57
2018-01-31T08:05:07.164Z,1006.48
2018-01-31T08:06:07.101Z,1006.43
2018-01-31T08:07:07.038Z,1006.41
2018-01-31T08:08:06.974Z,1006.38
2018-01-31T08:09:06.912Z,1006.42
2018-01-31T08:10:06.846Z,1006.36
2018-01-31T08:11:06.782Z,1006.24
2018-01-31T08:12:06.719Z,1006.28
2018-01-31T08:13:06.654Z,1006.18
2018-01-31T08:14:06.590Z,1006.32
2018-01-31T08:15:06.526Z,1006.34
2018-01-31T08:16:06.463Z,1006.32
2018-01-31T08:17:06.398Z,1006.23
2018-01-31T08:18:06.334Z,1006.33
2018-01-31T08:19:06.275Z,1006.31
2018-01-31T08:20:06.207Z,1006.29
2018-01-31T08:21:06.143Z,1006.29
2018-01-31T08:22:06.080Z,1006.36
2018-01-31T08:23:06.015Z,1006.32
2018-01-31T08:24:05.953Z,1006.34
2018-01-31T08:25:05.888Z,1006.29
2018-01-31T08:26:05.823Z,1006.29
2018-01-31T08:27:05.762Z,1006.31
2018-01-31T08:28:05.696Z,1006.27
2018-01-31T08:29:05.632Z,1006.27
2018-01-31T08:30:05.568Z,1006.31
2018-01-31T08:31:05.505Z,1006.23
2018-01-31T08:32:05.442Z,1006.15
2018-01-31T08:33:05.378Z,1006.11
2018-01-31T08:34:05.312Z,1006.04
2018-01-31T08:35:05.250Z,1006.13
2018-01-31T08:36:05.186Z,1006.07
2018-01-31T08:37:05.121Z,1006.05
2018-01-31T08:38:05.058Z,1006.04
2018-01-31T08:39:04.994Z,1006.05
2018-01-31T08:40:04.930Z,1006.11
2018-01-31T08:41:04.867Z,1006.04
2018-01-31T08:42:04.803Z,1005.99
2018-01-31T08:43:04.739Z,1006.08
2018-01-31T08:44:04.676Z,1005.94
2018-01-31T08:45:04.611Z,1005.92
2018-01-31T08:46:04.552Z,1005.81
2018-01-31T08:47:04.485Z,1005.80
2018-01-31T08:48:04.422Z,1005.91
2018-01-31T08:49:04.361Z,1005.83
2018-01-31T08:50:04.296Z,1005.66
2018-01-31T08:51:04.231Z,1005.64
2018-01-31T08:52:04.168Z,1005.71
2018-01-31T08:53:04.111Z,1005.58
2018-01-31T08:54:04.040Z,1005.74
2018-01-31T08:55:03.979Z,1005.85
2018-01-31T08:56:03.914Z,1005.77
2018-01-31T08:57:03.850Z,1005.93
2018-01-31T08:58:03.787Z,1005.96
2018-01-31T08:59:03.724Z,1005.85
2018-01-31T09:00:03.661Z,1005.99
2018-01-31T09:01:03.598Z,1005.88
2018-01-31T09:02:03.534Z,1005.94
2018-01-31T09:03:03.471Z,1006.01
2018-01-31T09:04:03.410Z,1005.91
2018-01-31T09:05:03.345Z,1005.89
2018-01-31T09:06:03.282Z,1005.97
2018-01-31T09:07:03.220Z,1005.89
2018-01-31T09:08:03.157Z,1005.89
2018-01-31T09:09:03.093Z,1006.04
2018-01-31T09:10:03.032Z,1006.00
2018-01-31T09:11:02.971Z,1005.91
2018-01-31T09:12:02.906Z,1005.91
2018-01-31T09:13:02.843Z,1005.93
2018-01-31T09:14:02.782Z,1005.92
2018-01-31T09:15:02.718Z,1006.10
2018-01-31T09:16:02.659Z,1006.04
2018-01-31T09:17:02.797Z,1005.92
2018-01-31T09:18:02.532Z,1006.16
2018-01-31T09:19:02.469Z,1005.96
2018-01-31T09:20:02.406Z,1005.78
2018-01-31T09:21:02.343Z,1005.68
2018-01-31T09:22:02.282Z,1005.67
2018-01-31T09:23:02.219Z,1005.62
2018-01-31T09:24:02.160Z,1005.61
2018-01-31T09:25:02.097Z,1005.67
2018-01-31T09:26:02.031Z,1005.63
2018-01-31T09:27:01.983Z,1005.65
2018-01-31T09:28:01.906Z,1005.74
2018-01-31T09:29:01.843Z,1005.64
2018-01-31T09:30:01.782Z,1005.68
2018-01-31T09:31:01.751Z,1005.52
2018-01-31T09:32:01.658Z,1005.55
2018-01-31T09:33:01.595Z,1005.36
2018-01-31T09:34:01.532Z,1005.48
2018-01-31T09:35:01.511Z,1005.46
2018-01-31T09:36:01.411Z,1005.34
2018-01-31T09:37:01.345Z,1005.34
2018-01-31T09:38:01.282Z,1005.33
2018-01-31T09:39:01.220Z,1005.22
2018-01-31T09:40:01.157Z,1005.34
2018-01-31T09:41:01.102Z,1005.27
2018-01-31T09:42:01.032Z,1005.27
2018-01-31T09:43:00.971Z,1005.29
2018-01-31T09:44:00.911Z,1005.29
2018-01-31T09:45:00.894Z,1005.24
2018-01-31T09:46:00.782Z,1005.22
2018-01-31T09:47:00.720Z,1005.13
2018-01-31T09:48:00.657Z,1005.21
2018-01-31T09:49:00.594Z,1005.14
2018-01-31T09:50:00.532Z,1005.22
2018-01-31T09:51:00.471Z,1005.12
2018-01-31T09:52:00.407Z,1005.12
2018-01-31T09:53:02.452Z,1005.16
2018-01-31T09:54:00.281Z,1005.16
2018-01-31T09:55:00.219Z,1005.16
2018-01-31T09:56:00.156Z,1005.15
2018-01-31T09:57:00.102Z,1005.14
2018-01-31T09:58:00.031Z,1005.14
2018-01-31T09:58:59.968Z,1005.06
2018-01-31T09:59:59.905Z,1005.07
2018-01-31T10:00:59.841Z,1005.10
2018-01-31T10:01:59.782Z,1005.12
2018-01-31T10:02:59.717Z,1005.13
2018-01-31T10:03:59.654Z,1005.10
2018-01-31T10:04:59.590Z,1005.10
2018-01-31T10:05:59.545Z,1005.17
2018-01-31T10:06:59.464Z,1005.20
2018-01-31T10:07:59.402Z,1005.12
2018-01-31T10:08:59.340Z,1005.13
2018-01-31T10:09:59.276Z,1005.14
2018-01-31T10:10:59.212Z,1005.04
2018-01-31T10:11:59.150Z,1005.09
2018-01-31T10:12:59.091Z,1004.98
2018-01-31T10:13:59.024Z,1005.03
2018-01-31T10:14:58.961Z,1005.04
2018-01-31T10:15:58.898Z,1005.04
2018-01-31T10:16:58.833Z,1004.98
2018-01-31T10:17:58.771Z,1004.98
2018-01-31T10:18:58.708Z,1004.98
2018-01-31T10:19:58.646Z,1004.95
2018-01-31T10:20:58.582Z,1004.89
2018-01-31T10:21:58.518Z,1004.89
2018-01-31T10:22:58.455Z,1004.88
2018-01-31T10:23:58.442Z,1004.85
2018-01-31T10:24:58.328Z,1004.79
2018-01-31T10:25:58.265Z,1004.78
2018-01-31T10:26:58.202Z,1004.80
2018-01-31T10:27:58.140Z,1004.81
2018-01-31T10:28:58.075Z,1004.71
2018-01-31T10:29:58.012Z,1004.73
2018-01-31T10:30:57.950Z,1004.63
2018-01-31T10:31:57.886Z,1004.66
2018-01-31T10:32:57.822Z,1004.67
2018-01-31T10:33:57.760Z,1004.57
2018-01-31T10:34:57.695Z,1004.56
2018-01-31T10:35:57.632Z,1004.59
2018-01-31T10:36:57.567Z,1004.55
2018-01-31T10:37:57.504Z,1004.44
2018-01-31T10:38:57.442Z,1004.43
2018-01-31T10:39:57.379Z,1004.35
2018-01-31T10:40:57.314Z,1004.34
2018-01-31T10:41:57.251Z,1004.25
2018-01-31T10:42:57.189Z,1004.24
2018-01-31T10:43:57.123Z,1004.16
2018-01-31T10:44:57.059Z,1004.18
2018-01-31T10:45:56.996Z,1004.18
2018-01-31T10:46:56.932Z,1004.15
2018-01-31T10:47:56.869Z,1004.15
2018-01-31T10:48:56.805Z,1004.12
2018-01-31T10:49:56.741Z,1004.09
2018-01-31T10:50:56.680Z,1004.14
2018-01-31T10:51:56.614Z,1004.24
2018-01-31T10:52:56.876Z,1004.19
2018-01-31T10:57:28.536Z,1004.22
2018-01-31T10:57:56.234Z,1004.16
2018-01-31T10:58:56.171Z,1004.00
2018-01-31T10:59:56.108Z,1003.84
2018-01-31T11:00:56.044Z,1003.80
2018-01-31T11:01:55.981Z,1003.65
2018-01-31T11:02:55.921Z,1003.67
2018-01-31T11:03:55.855Z,1003.62
2018-01-31T11:04:55.791Z,1003.69
2018-01-31T11:05:55.728Z,1003.70
2018-01-31T11:06:55.665Z,1003.73
2018-01-31T11:07:55.602Z,1003.69
2018-01-31T11:08:55.540Z,1003.65
2018-01-31T11:09:55.475Z,1003.59
2018-01-31T11:10:55.413Z,1003.59
2018-01-31T11:11:55.350Z,1003.46
2018-01-31T11:12:55.292Z,1003.42
2018-01-31T11:13:55.223Z,1003.44
2018-01-31T11:14:55.216Z,1003.35
2018-01-31T11:15:55.098Z,1003.42
2018-01-31T11:16:55.034Z,1003.46
2018-01-31T11:17:54.971Z,1003.43
2018-01-31T11:18:54.909Z,1003.44
2018-01-31T11:19:54.846Z,1003.46
2018-01-31T11:20:54.782Z,1003.57
2018-01-31T11:21:54.719Z,1003.56
2018-01-31T11:22:54.657Z,1003.34
2018-01-31T11:23:54.642Z,1003.34
2018-01-31T11:24:54.532Z,1003.42
2018-01-31T11:25:54.468Z,1003.44
2018-01-31T11:26:54.407Z,1003.39
2018-01-31T11:27:54.345Z,1003.22
2018-01-31T11:28:54.280Z,1003.22
2018-01-31T11:29:54.218Z,1003.19
2018-01-31T11:30:54.155Z,1003.15
2018-01-31T11:31:54.093Z,1003.13
2018-01-31T11:32:54.030Z,1003.08
2018-01-31T11:33:53.966Z,1003.02
2018-01-31T11:34:53.903Z,1003.02
2018-01-31T11:35:53.841Z,1002.87
2018-01-31T11:36:53.779Z,1002.92
2018-01-31T11:37:53.715Z,1002.88
2018-01-31T11:38:53.652Z,1002.86
2018-01-31T11:39:53.590Z,1002.82
2018-01-31T11:40:53.527Z,1002.82
2018-01-31T11:41:53.464Z,1002.89
2018-01-31T11:42:53.400Z,1002.77
2018-01-31T11:43:53.337Z,1002.78
2018-01-31T11:44:53.275Z,1002.68
2018-01-31T11:45:53.210Z,1002.75
2018-01-31T11:46:53.149Z,1002.63
2018-01-31T11:47:53.086Z,1002.60
2018-01-31T11:48:53.021Z,1002.52
2018-01-31T11:49:52.959Z,1002.52
2018-01-31T11:50:52.896Z,1002.49
2018-01-31T11:51:52.836Z,1002.61
2018-01-31T11:52:52.769Z,1002.51
2018-01-31T11:53:52.756Z,1002.52
2018-01-31T11:54:52.643Z,1002.42
2018-01-31T11:55:52.580Z,1002.54
2018-01-31T11:56:52.516Z,1002.51
2018-01-31T11:57:52.454Z,1002.54
2018-01-31T11:58:52.391Z,1002.58
2018-01-31T11:59:52.329Z,1002.57
2018-01-31T12:00:52.263Z,1002.51
2018-01-31T12:01:52.200Z,1002.54
2018-01-31T12:02:52.137Z,1002.49
2018-01-31T12:03:52.075Z,1002.56
2018-01-31T12:04:52.011Z,1002.50
2018-01-31T12:05:51.947Z,1002.57
2018-01-31T12:06:51.886Z,1002.52
2018-01-31T12:07:51.821Z,1002.44
2018-01-31T12:08:51.759Z,1002.42
2018-01-31T12:09:51.695Z,1002.29
2018-01-31T12:10:51.633Z,1002.25
2018-01-31T12:11:51.569Z,1002.18
2018-01-31T12:12:51.506Z,1002.21
2018-01-31T12:13:51.453Z,1002.23
2018-01-31T12:14:51.379Z,1002.13
2018-01-31T12:15:51.315Z,1002.10
2018-01-31T12:16:51.269Z,1002.03
2018-01-31T12:17:51.190Z,1002.08
2018-01-31T12:18:51.126Z,1002.08
2018-01-31T12:19:51.064Z,1002.01
2018-01-31T12:20:50.999Z,1002.00
2018-01-31T12:21:50.936Z,1002.00
2018-01-31T12:22:50.875Z,1002.01
2018-01-31T12:23:50.810Z,1001.98
2018-01-31T12:24:50.747Z,1001.94
2018-01-31T12:25:50.683Z,1001.90
2018-01-31T12:26:50.646Z,1001.91
2018-01-31T12:27:50.558Z,1001.91
2018-01-31T12:28:50.494Z,1001.86
2018-01-31T12:29:50.432Z,1001.77
2018-01-31T12:30:50.368Z,1001.81
2018-01-31T12:31:50.306Z,1001.66
2018-01-31T12:32:50.242Z,1001.71
2018-01-31T12:33:50.179Z,1001.71
2018-01-31T12:34:50.116Z,1001.80
2018-01-31T12:35:50.053Z,1001.73
2018-01-31T12:36:50.010Z,1001.58
2018-01-31T12:37:49.945Z,1001.60
2018-01-31T12:38:49.867Z,1001.51
2018-01-31T12:39:49.802Z,1001.45
2018-01-31T12:40:49.739Z,1001.41
2018-01-31T12:41:49.694Z,1001.48
2018-01-31T12:42:49.612Z,1001.45
2018-01-31T12:43:49.550Z,1001.39
2018-01-31T12:44:49.487Z,1001.36
2018-01-31T12:45:49.425Z,1001.27
2018-01-31T12:46:49.361Z,1001.34
2018-01-31T12:47:49.302Z,1001.39
2018-01-31T12:48:49.237Z,1001.28
2018-01-31T12:49:49.175Z,1001.32
2018-01-31T12:50:49.114Z,1001.23
2018-01-31T12:51:49.050Z,1001.32
2018-01-31T12:52:48.993Z,1001.18
2018-01-31T12:53:48.924Z,1001.22
2018-01-31T12:54:48.862Z,1001.17
2018-01-31T12:55:48.800Z,1001.19
2018-01-31T12:56:48.736Z,1001.15
2018-01-31T12:57:48.674Z,1001.15
2018-01-31T12:58:48.614Z,1001.15
2018-01-31T12:59:48.601Z,1001.14
2018-01-31T13:00:48.487Z,1001.11
2018-01-31T13:01:48.424Z,1001.06
2018-01-31T13:02:48.364Z,1001.05
2018-01-31T13:03:48.301Z,1001.05
2018-01-31T13:04:48.236Z,1001.06
2018-01-31T13:05:48.175Z,1001.00
2018-01-31T13:06:48.112Z,1000.99
2018-01-31T13:07:48.050Z,1000.91
2018-01-31T13:08:47.988Z,1000.81
2018-01-31T13:09:47.926Z,1000.79
2018-01-31T13:10:47.863Z,1000.71
2018-01-31T13:11:47.803Z,1000.70
2018-01-31T13:12:47.742Z,1000.67
2018-01-31T13:13:47.679Z,1000.56
2018-01-31T13:14:47.658Z,1000.57
2018-01-31T13:15:47.551Z,1000.57
2018-01-31T13:16:47.487Z,1000.62
2018-01-31T13:17:47.425Z,1000.51
2018-01-31T13:18:47.363Z,1000.47
2018-01-31T13:19:47.302Z,1000.56
2018-01-31T13:20:47.237Z,1000.53
2018-01-31T13:21:47.176Z,1000.53
2018-01-31T13:22:47.114Z,1000.40
2018-01-31T13:23:47.050Z,1000.42
2018-01-31T13:24:46.988Z,1000.31
2018-01-31T13:25:46.927Z,1000.31
2018-01-31T13:26:46.864Z,1000.26
2018-01-31T13:27:46.801Z,1000.21
2018-01-31T13:28:46.738Z,1000.21
2018-01-31T13:29:46.676Z,1000.09
2018-01-31T13:30:46.614Z,1000.10
2018-01-31T13:31:46.552Z,1000.07
2018-01-31T13:32:46.495Z,1000.09
2018-01-31T13:33:46.425Z,1000.03
2018-01-31T13:34:46.366Z,999.94
2018-01-31T13:35:46.302Z,999.95
2018-01-31T13:36:46.239Z,999.84
2018-01-31T13:37:46.179Z,999.83
2018-01-31T13:38:46.114Z,999.78
2018-01-31T13:39:46.052Z,999.76
2018-01-31T13:40:45.989Z,999.74
2018-01-31T13:41:45.926Z,999.72
2018-01-31T13:42:45.864Z,999.74
2018-01-31T13:43:45.802Z,999.72
2018-01-31T13:44:45.739Z,999.66
2018-01-31T13:45:45.677Z,999.63
2018-01-31T13:46:45.615Z,999.61
2018-01-31T13:47:45.552Z,999.58
2018-01-31T13:48:45.489Z,999.55
2018-01-31T13:49:45.427Z,999.57
2018-01-31T13:50:45.365Z,999.46
2018-01-31T13:51:45.303Z,999.46
2018-01-31T13:52:45.240Z,999.47
2018-01-31T13:53:45.176Z,999.43
2018-01-31T13:54:45.114Z,999.44
2018-01-31T13:55:45.050Z,999.43
2018-01-31T13:56:44.987Z,999.41
2018-01-31T13:57:44.926Z,999.37
2018-01-31T13:58:44.886Z,999.39
2018-01-31T13:59:44.799Z,999.31
2018-01-31T14:00:44.740Z,999.26